sensor_id;sensor_type;location;lat;lon;timestamp;P1;durP1;ratioP1;P2;durP2;ratioP2
20865;SDS011;10593;48.398;10.698;2023-11-21T00:00:18;1.33;;;1.10;;
20865;SDS011;10593;48.398;10.698;2023-11-21T00:02:44;1.90;;;1.20;;
20865;SDS011;10593;48.398;10.698;2023-11-21T00:05:11;2.37;;;1.10;;
20865;SDS011;10593;48.398;10.698;2023-11-21T00:07:41;2.90;;;1.00;;
20865;SDS011;10593;48.398;10.698;2023-11-21T00:10:08;2.83;;;1.00;;
20865;SDS011;10593;48.398;10.698;2023-11-21T00:12:35;2.70;;;1.50;;
20865;SDS011;10593;48.398;10.698;2023-11-21T00:15:01;3.17;;;1.07;;
20865;SDS011;10593;48.398;10.698;2023-11-21T00:17:30;1.97;;;1.40;;
20865;SDS011;10593;48.398;10.698;2023-11-21T00:19:56;2.27;;;1.10;;
20865;SDS011;10593;48.398;10.698;2023-11-21T00:22:21;3.00;;;1.10;;
20865;SDS011;10593;48.398;10.698;2023-11-21T00:24:47;1.67;;;1.10;;
20865;SDS011;10593;48.398;10.698;2023-11-21T00:27:13;3.23;;;1.27;;
20865;SDS011;10593;48.398;10.698;2023-11-21T00:29:39;1.70;;;1.00;;
20865;SDS011;10593;48.398;10.698;2023-11-21T00:32:05;2.97;;;1.10;;
20865;SDS011;10593;48.398;10.698;2023-11-21T00:34:32;1.60;;;1.10;;
20865;SDS011;10593;48.398;10.698;2023-11-21T00:36:58;2.23;;;1.23;;
20865;SDS011;10593;48.398;10.698;2023-11-21T00:39:24;1.63;;;1.07;;
20865;SDS011;10593;48.398;10.698;2023-11-21T00:41:51;1.90;;;1.20;;
20865;SDS011;10593;48.398;10.698;2023-11-21T00:44:18;1.40;;;1.20;;
20865;SDS011;10593;48.398;10.698;2023-11-21T00:46:43;1.70;;;0.70;;
20865;SDS011;10593;48.398;10.698;2023-11-21T00:49:09;3.57;;;0.90;;
20865;SDS011;10593;48.398;10.698;2023-11-21T00:51:35;0.87;;;0.73;;
20865;SDS011;10593;48.398;10.698;2023-11-21T00:54:01;4.03;;;1.30;;
20865;SDS011;10593;48.398;10.698;2023-11-21T00:56:27;1.90;;;1.20;;
20865;SDS011;10593;48.398;10.698;2023-11-21T00:58:53;2.53;;;1.03;;
20865;SDS011;10593;48.398;10.698;2023-11-21T01:01:20;1.87;;;1.10;;
20865;SDS011;10593;48.398;10.698;2023-11-21T01:03:49;0.77;;;0.70;;
20865;SDS011;10593;48.398;10.698;2023-11-21T01:06:15;1.60;;;0.80;;
20865;SDS011;10593;48.398;10.698;2023-11-21T01:08:42;2.07;;;1.13;;
20865;SDS011;10593;48.398;10.698;2023-11-21T01:11:09;1.13;;;0.93;;
20865;SDS011;10593;48.398;10.698;2023-11-21T01:13:37;1.03;;;0.90;;
20865;SDS011;10593;48.398;10.698;2023-11-21T01:16:04;1.63;;;0.83;;
20865;SDS011;10593;48.398;10.698;2023-11-21T01:18:37;3.07;;;0.90;;
20865;SDS011;10593;48.398;10.698;2023-11-21T01:21:03;2.67;;;0.70;;
20865;SDS011;10593;48.398;10.698;2023-11-21T01:23:29;1.37;;;0.70;;
20865;SDS011;10593;48.398;10.698;2023-11-21T01:25:55;2.30;;;1.10;;
20865;SDS011;10593;48.398;10.698;2023-11-21T01:28:22;2.70;;;1.23;;
20865;SDS011;10593;48.398;10.698;2023-11-21T01:30:48;5.13;;;1.50;;
20865;SDS011;10593;48.398;10.698;2023-11-21T01:33:14;1.50;;;1.00;;
20865;SDS011;10593;48.398;10.698;2023-11-21T01:35:40;1.33;;;1.23;;
20865;SDS011;10593;48.398;10.698;2023-11-21T01:38:11;1.27;;;1.10;;
20865;SDS011;10593;48.398;10.698;2023-11-21T01:40:37;2.60;;;1.10;;
20865;SDS011;10593;48.398;10.698;2023-11-21T01:43:02;2.23;;;1.60;;
20865;SDS011;10593;48.398;10.698;2023-11-21T01:45:28;0.97;;;0.63;;
20865;SDS011;10593;48.398;10.698;2023-11-21T01:47:59;1.43;;;0.93;;
20865;SDS011;10593;48.398;10.698;2023-11-21T01:50:25;1.40;;;0.90;;
20865;SDS011;10593;48.398;10.698;2023-11-21T01:52:52;0.70;;;0.67;;
20865;SDS011;10593;48.398;10.698;2023-11-21T01:55:19;1.93;;;0.90;;
20865;SDS011;10593;48.398;10.698;2023-11-21T01:57:45;2.03;;;1.10;;
20865;SDS011;10593;48.398;10.698;2023-11-21T02:00:13;1.97;;;0.80;;
20865;SDS011;10593;48.398;10.698;2023-11-21T02:02:45;2.77;;;1.40;;
20865;SDS011;10593;48.398;10.698;2023-11-21T02:05:12;1.40;;;0.73;;
20865;SDS011;10593;48.398;10.698;2023-11-21T02:07:42;1.53;;;1.17;;
20865;SDS011;10593;48.398;10.698;2023-11-21T02:10:08;1.53;;;0.93;;
20865;SDS011;10593;48.398;10.698;2023-11-21T02:12:34;1.43;;;0.83;;
20865;SDS011;10593;48.398;10.698;2023-11-21T02:15:03;1.93;;;1.07;;
20865;SDS011;10593;48.398;10.698;2023-11-21T02:17:34;1.60;;;0.90;;
20865;SDS011;10593;48.398;10.698;2023-11-21T02:20:01;1.30;;;0.97;;
20865;SDS011;10593;48.398;10.698;2023-11-21T02:22:29;0.70;;;0.70;;
20865;SDS011;10593;48.398;10.698;2023-11-21T02:25:02;0.60;;;0.60;;
20865;SDS011;10593;48.398;10.698;2023-11-21T02:27:28;1.27;;;0.73;;
20865;SDS011;10593;48.398;10.698;2023-11-21T02:29:54;0.77;;;0.73;;
20865;SDS011;10593;48.398;10.698;2023-11-21T02:32:20;1.87;;;1.10;;
20865;SDS011;10593;48.398;10.698;2023-11-21T02:34:48;0.87;;;0.60;;
20865;SDS011;10593;48.398;10.698;2023-11-21T02:37:15;1.07;;;0.77;;
20865;SDS011;10593;48.398;10.698;2023-11-21T02:39:40;0.73;;;0.73;;
20865;SDS011;10593;48.398;10.698;2023-11-21T02:42:06;1.27;;;0.80;;
20865;SDS011;10593;48.398;10.698;2023-11-21T02:44:32;2.67;;;0.80;;
20865;SDS011;10593;48.398;10.698;2023-11-21T02:46:58;1.13;;;0.60;;
20865;SDS011;10593;48.398;10.698;2023-11-21T02:49:23;0.73;;;0.70;;
20865;SDS011;10593;48.398;10.698;2023-11-21T02:51:49;1.07;;;0.83;;
20865;SDS011;10593;48.398;10.698;2023-11-21T02:54:15;0.87;;;0.87;;
20865;SDS011;10593;48.398;10.698;2023-11-21T02:56:42;2.03;;;0.90;;
20865;SDS011;10593;48.398;10.698;2023-11-21T02:59:07;1.53;;;0.80;;
20865;SDS011;10593;48.398;10.698;2023-11-21T03:01:33;2.37;;;1.00;;
20865;SDS011;10593;48.398;10.698;2023-11-21T03:03:59;1.63;;;0.90;;
20865;SDS011;10593;48.398;10.698;2023-11-21T03:06:25;3.13;;;1.27;;
20865;SDS011;10593;48.398;10.698;2023-11-21T03:08:51;2.27;;;0.90;;
20865;SDS011;10593;48.398;10.698;2023-11-21T03:11:16;2.10;;;1.30;;
20865;SDS011;10593;48.398;10.698;2023-11-21T03:13:42;2.70;;;1.20;;
20865;SDS011;10593;48.398;10.698;2023-11-21T03:16:11;2.00;;;1.10;;
20865;SDS011;10593;48.398;10.698;2023-11-21T03:18:38;1.70;;;1.57;;
20865;SDS011;10593;48.398;10.698;2023-11-21T03:21:04;1.73;;;1.10;;
20865;SDS011;10593;48.398;10.698;2023-11-21T03:23:33;1.83;;;1.20;;
20865;SDS011;10593;48.398;10.698;2023-11-21T03:26:00;1.67;;;0.90;;
20865;SDS011;10593;48.398;10.698;2023-11-21T03:28:26;1.37;;;0.90;;
20865;SDS011;10593;48.398;10.698;2023-11-21T03:30:53;0.50;;;0.50;;
20865;SDS011;10593;48.398;10.698;2023-11-21T03:33:19;1.30;;;1.00;;
20865;SDS011;10593;48.398;10.698;2023-11-21T03:35:45;0.90;;;0.70;;
20865;SDS011;10593;48.398;10.698;2023-11-21T03:38:11;1.50;;;0.80;;
20865;SDS011;10593;48.398;10.698;2023-11-21T03:40:37;2.90;;;1.03;;
20865;SDS011;10593;48.398;10.698;2023-11-21T03:43:05;1.50;;;0.80;;
20865;SDS011;10593;48.398;10.698;2023-11-21T03:45:31;1.07;;;0.97;;
20865;SDS011;10593;48.398;10.698;2023-11-21T03:47:57;2.83;;;1.00;;
20865;SDS011;10593;48.398;10.698;2023-11-21T03:50:23;0.43;;;0.43;;
20865;SDS011;10593;48.398;10.698;2023-11-21T03:52:48;1.13;;;0.70;;
20865;SDS011;10593;48.398;10.698;2023-11-21T03:55:14;1.50;;;0.70;;
20865;SDS011;10593;48.398;10.698;2023-11-21T03:57:40;1.53;;;0.83;;
20865;SDS011;10593;48.398;10.698;2023-11-21T04:00:06;1.57;;;1.10;;
20865;SDS011;10593;48.398;10.698;2023-11-21T04:02:33;2.13;;;1.10;;
20865;SDS011;10593;48.398;10.698;2023-11-21T04:05:00;0.97;;;0.80;;
20865;SDS011;10593;48.398;10.698;2023-11-21T04:07:26;0.70;;;0.70;;
20865;SDS011;10593;48.398;10.698;2023-11-21T04:09:52;1.03;;;0.73;;
20865;SDS011;10593;48.398;10.698;2023-11-21T04:12:18;0.63;;;0.63;;
20865;SDS011;10593;48.398;10.698;2023-11-21T04:14:44;1.40;;;0.90;;
20865;SDS011;10593;48.398;10.698;2023-11-21T04:17:10;1.03;;;0.87;;
20865;SDS011;10593;48.398;10.698;2023-11-21T04:19:36;1.73;;;1.00;;
20865;SDS011;10593;48.398;10.698;2023-11-21T04:22:01;1.90;;;0.93;;
20865;SDS011;10593;48.398;10.698;2023-11-21T04:24:27;1.13;;;0.80;;
20865;SDS011;10593;48.398;10.698;2023-11-21T04:26:53;1.87;;;0.83;;
20865;SDS011;10593;48.398;10.698;2023-11-21T04:29:18;0.70;;;0.63;;
20865;SDS011;10593;48.398;10.698;2023-11-21T04:31:44;1.40;;;0.70;;
20865;SDS011;10593;48.398;10.698;2023-11-21T04:34:11;2.50;;;1.13;;
20865;SDS011;10593;48.398;10.698;2023-11-21T04:36:39;1.80;;;0.80;;
20865;SDS011;10593;48.398;10.698;2023-11-21T04:39:05;1.40;;;0.80;;
20865;SDS011;10593;48.398;10.698;2023-11-21T04:41:31;0.60;;;0.50;;
20865;SDS011;10593;48.398;10.698;2023-11-21T04:43:57;0.83;;;0.70;;
20865;SDS011;10593;48.398;10.698;2023-11-21T04:46:23;0.93;;;0.73;;
20865;SDS011;10593;48.398;10.698;2023-11-21T04:48:49;1.17;;;0.60;;
20865;SDS011;10593;48.398;10.698;2023-11-21T04:51:15;1.07;;;0.63;;
20865;SDS011;10593;48.398;10.698;2023-11-21T04:53:40;1.13;;;0.73;;
20865;SDS011;10593;48.398;10.698;2023-11-21T04:56:06;0.90;;;0.70;;
20865;SDS011;10593;48.398;10.698;2023-11-21T04:58:32;1.97;;;0.60;;
20865;SDS011;10593;48.398;10.698;2023-11-21T05:00:58;1.23;;;0.70;;
20865;SDS011;10593;48.398;10.698;2023-11-21T05:03:24;1.00;;;0.70;;
20865;SDS011;10593;48.398;10.698;2023-11-21T05:05:51;1.10;;;1.00;;
20865;SDS011;10593;48.398;10.698;2023-11-21T05:08:16;1.10;;;0.90;;
20865;SDS011;10593;48.398;10.698;2023-11-21T05:10:46;1.20;;;0.80;;
20865;SDS011;10593;48.398;10.698;2023-11-21T05:13:13;1.80;;;1.30;;
20865;SDS011;10593;48.398;10.698;2023-11-21T05:15:42;2.00;;;1.47;;
20865;SDS011;10593;48.398;10.698;2023-11-21T05:18:09;1.37;;;1.13;;
20865;SDS011;10593;48.398;10.698;2023-11-21T05:20:35;2.30;;;1.53;;
20865;SDS011;10593;48.398;10.698;2023-11-21T05:23:01;2.33;;;1.60;;
20865;SDS011;10593;48.398;10.698;2023-11-21T05:25:27;2.17;;;1.97;;
20865;SDS011;10593;48.398;10.698;2023-11-21T05:27:52;2.63;;;1.90;;
20865;SDS011;10593;48.398;10.698;2023-11-21T05:30:19;1.80;;;1.70;;
20865;SDS011;10593;48.398;10.698;2023-11-21T05:32:47;1.90;;;1.53;;
20865;SDS011;10593;48.398;10.698;2023-11-21T05:35:14;2.03;;;1.43;;
20865;SDS011;10593;48.398;10.698;2023-11-21T05:37:44;1.67;;;1.20;;
20865;SDS011;10593;48.398;10.698;2023-11-21T05:40:11;1.50;;;1.40;;
20865;SDS011;10593;48.398;10.698;2023-11-21T05:42:38;1.57;;;1.47;;
20865;SDS011;10593;48.398;10.698;2023-11-21T05:45:06;2.40;;;1.10;;
20865;SDS011;10593;48.398;10.698;2023-11-21T05:47:43;1.30;;;1.20;;
20865;SDS011;10593;48.398;10.698;2023-11-21T05:50:11;1.50;;;1.40;;
20865;SDS011;10593;48.398;10.698;2023-11-21T05:52:44;1.40;;;1.30;;
20865;SDS011;10593;48.398;10.698;2023-11-21T05:55:12;1.80;;;1.53;;
20865;SDS011;10593;48.398;10.698;2023-11-21T05:57:38;2.03;;;1.70;;
20865;SDS011;10593;48.398;10.698;2023-11-21T06:00:06;17.90;;;4.93;;
20865;SDS011;10593;48.398;10.698;2023-11-21T06:02:45;5.60;;;4.93;;
20865;SDS011;10593;48.398;10.698;2023-11-21T06:05:15;7.20;;;5.33;;
20865;SDS011;10593;48.398;10.698;2023-11-21T06:07:43;5.03;;;4.20;;
20865;SDS011;10593;48.398;10.698;2023-11-21T06:10:10;5.63;;;4.33;;
20865;SDS011;10593;48.398;10.698;2023-11-21T06:12:39;5.23;;;3.47;;
20865;SDS011;10593;48.398;10.698;2023-11-21T06:15:08;6.23;;;3.87;;
20865;SDS011;10593;48.398;10.698;2023-11-21T06:17:35;4.17;;;3.60;;
20865;SDS011;10593;48.398;10.698;2023-11-21T06:20:02;3.57;;;2.60;;
20865;SDS011;10593;48.398;10.698;2023-11-21T06:22:39;3.77;;;2.07;;
20865;SDS011;10593;48.398;10.698;2023-11-21T06:25:07;3.37;;;2.13;;
20865;SDS011;10593;48.398;10.698;2023-11-21T06:27:38;4.47;;;2.77;;
20865;SDS011;10593;48.398;10.698;2023-11-21T06:30:05;4.37;;;3.27;;
20865;SDS011;10593;48.398;10.698;2023-11-21T06:32:33;4.47;;;4.03;;
20865;SDS011;10593;48.398;10.698;2023-11-21T06:35:00;4.90;;;3.50;;
20865;SDS011;10593;48.398;10.698;2023-11-21T06:37:28;3.23;;;2.53;;
20865;SDS011;10593;48.398;10.698;2023-11-21T06:39:55;1.43;;;1.33;;
20865;SDS011;10593;48.398;10.698;2023-11-21T06:42:23;1.20;;;1.10;;
20865;SDS011;10593;48.398;10.698;2023-11-21T06:44:49;2.07;;;1.00;;
20865;SDS011;10593;48.398;10.698;2023-11-21T06:47:22;0.80;;;0.50;;
20865;SDS011;10593;48.398;10.698;2023-11-21T06:49:52;0.50;;;0.50;;
20865;SDS011;10593;48.398;10.698;2023-11-21T06:52:18;2.27;;;0.90;;
20865;SDS011;10593;48.398;10.698;2023-11-21T06:54:45;0.93;;;0.70;;
20865;SDS011;10593;48.398;10.698;2023-11-21T06:57:12;0.97;;;0.80;;
20865;SDS011;10593;48.398;10.698;2023-11-21T06:59:38;0.73;;;0.53;;
20865;SDS011;10593;48.398;10.698;2023-11-21T07:02:04;1.27;;;0.80;;
20865;SDS011;10593;48.398;10.698;2023-11-21T07:04:31;1.57;;;0.77;;
20865;SDS011;10593;48.398;10.698;2023-11-21T07:06:58;2.10;;;0.90;;
20865;SDS011;10593;48.398;10.698;2023-11-21T07:09:23;1.50;;;0.90;;
20865;SDS011;10593;48.398;10.698;2023-11-21T07:11:50;3.43;;;2.10;;
20865;SDS011;10593;48.398;10.698;2023-11-21T07:14:17;4.70;;;4.17;;
20865;SDS011;10593;48.398;10.698;2023-11-21T07:16:44;4.87;;;3.80;;
20865;SDS011;10593;48.398;10.698;2023-11-21T07:19:11;5.63;;;3.43;;
20865;SDS011;10593;48.398;10.698;2023-11-21T07:21:38;4.23;;;3.10;;
20865;SDS011;10593;48.398;10.698;2023-11-21T07:24:04;3.30;;;2.83;;
20865;SDS011;10593;48.398;10.698;2023-11-21T07:26:32;3.00;;;2.63;;
20865;SDS011;10593;48.398;10.698;2023-11-21T07:28:58;4.03;;;3.03;;
20865;SDS011;10593;48.398;10.698;2023-11-21T07:31:25;3.63;;;2.90;;
20865;SDS011;10593;48.398;10.698;2023-11-21T07:33:51;3.67;;;2.60;;
20865;SDS011;10593;48.398;10.698;2023-11-21T07:36:17;2.77;;;2.50;;
20865;SDS011;10593;48.398;10.698;2023-11-21T07:38:45;2.47;;;2.27;;
20865;SDS011;10593;48.398;10.698;2023-11-21T07:41:12;2.30;;;2.10;;
20865;SDS011;10593;48.398;10.698;2023-11-21T07:43:40;1.70;;;1.53;;
20865;SDS011;10593;48.398;10.698;2023-11-21T07:46:07;2.10;;;1.90;;
20865;SDS011;10593;48.398;10.698;2023-11-21T07:48:33;1.93;;;1.83;;
20865;SDS011;10593;48.398;10.698;2023-11-21T07:51:01;2.23;;;1.63;;
20865;SDS011;10593;48.398;10.698;2023-11-21T07:53:31;1.80;;;1.70;;
20865;SDS011;10593;48.398;10.698;2023-11-21T07:55:58;1.73;;;1.20;;
20865;SDS011;10593;48.398;10.698;2023-11-21T07:58:34;2.07;;;1.60;;
20865;SDS011;10593;48.398;10.698;2023-11-21T08:01:01;1.60;;;1.50;;
20865;SDS011;10593;48.398;10.698;2023-11-21T08:03:29;1.77;;;1.60;;
20865;SDS011;10593;48.398;10.698;2023-11-21T08:05:59;1.70;;;1.60;;
20865;SDS011;10593;48.398;10.698;2023-11-21T08:08:24;2.03;;;1.20;;
20865;SDS011;10593;48.398;10.698;2023-11-21T08:10:51;1.67;;;1.50;;
20865;SDS011;10593;48.398;10.698;2023-11-21T08:13:23;1.00;;;1.00;;
20865;SDS011;10593;48.398;10.698;2023-11-21T08:15:50;0.90;;;0.90;;
20865;SDS011;10593;48.398;10.698;2023-11-21T08:18:19;1.77;;;1.30;;
20865;SDS011;10593;48.398;10.698;2023-11-21T08:20:45;1.43;;;1.33;;
20865;SDS011;10593;48.398;10.698;2023-11-21T08:23:16;2.30;;;0.90;;
20865;SDS011;10593;48.398;10.698;2023-11-21T08:25:45;1.07;;;1.07;;
20865;SDS011;10593;48.398;10.698;2023-11-21T08:28:11;1.47;;;1.10;;
20865;SDS011;10593;48.398;10.698;2023-11-21T08:30:39;1.33;;;1.23;;
20865;SDS011;10593;48.398;10.698;2023-11-21T08:33:06;1.27;;;1.20;;
20865;SDS011;10593;48.398;10.698;2023-11-21T08:35:33;2.00;;;0.80;;
20865;SDS011;10593;48.398;10.698;2023-11-21T08:38:01;1.10;;;1.10;;
20865;SDS011;10593;48.398;10.698;2023-11-21T08:40:27;1.33;;;0.90;;
20865;SDS011;10593;48.398;10.698;2023-11-21T08:42:54;1.57;;;1.13;;
20865;SDS011;10593;48.398;10.698;2023-11-21T08:45:20;1.37;;;1.10;;
20865;SDS011;10593;48.398;10.698;2023-11-21T08:47:47;1.20;;;1.10;;
20865;SDS011;10593;48.398;10.698;2023-11-21T08:50:13;0.93;;;0.93;;
20865;SDS011;10593;48.398;10.698;2023-11-21T08:52:40;1.10;;;1.00;;
20865;SDS011;10593;48.398;10.698;2023-11-21T08:55:07;1.10;;;1.03;;
20865;SDS011;10593;48.398;10.698;2023-11-21T08:57:36;0.87;;;0.87;;
20865;SDS011;10593;48.398;10.698;2023-11-21T09:00:04;1.47;;;1.00;;
20865;SDS011;10593;48.398;10.698;2023-11-21T09:02:42;0.93;;;0.90;;
20865;SDS011;10593;48.398;10.698;2023-11-21T09:05:09;1.50;;;0.93;;
20865;SDS011;10593;48.398;10.698;2023-11-21T09:07:39;1.33;;;1.10;;
20865;SDS011;10593;48.398;10.698;2023-11-21T09:10:06;1.03;;;0.70;;
20865;SDS011;10593;48.398;10.698;2023-11-21T09:12:34;1.60;;;1.00;;
20865;SDS011;10593;48.398;10.698;2023-11-21T09:15:02;1.00;;;0.80;;
20865;SDS011;10593;48.398;10.698;2023-11-21T09:17:33;0.83;;;0.63;;
20865;SDS011;10593;48.398;10.698;2023-11-21T09:20:00;0.80;;;0.80;;
20865;SDS011;10593;48.398;10.698;2023-11-21T09:22:28;1.10;;;0.90;;
20865;SDS011;10593;48.398;10.698;2023-11-21T09:24:54;1.67;;;0.90;;
20865;SDS011;10593;48.398;10.698;2023-11-21T09:27:21;1.10;;;1.00;;
20865;SDS011;10593;48.398;10.698;2023-11-21T09:29:47;0.93;;;0.93;;
20865;SDS011;10593;48.398;10.698;2023-11-21T09:32:14;0.83;;;0.83;;
20865;SDS011;10593;48.398;10.698;2023-11-21T09:34:41;0.87;;;0.80;;
20865;SDS011;10593;48.398;10.698;2023-11-21T09:37:07;1.83;;;0.90;;
20865;SDS011;10593;48.398;10.698;2023-11-21T09:39:33;0.90;;;0.90;;
20865;SDS011;10593;48.398;10.698;2023-11-21T09:42:04;0.90;;;0.90;;
20865;SDS011;10593;48.398;10.698;2023-11-21T09:44:46;0.87;;;0.83;;
20865;SDS011;10593;48.398;10.698;2023-11-21T09:47:22;2.23;;;1.10;;
20865;SDS011;10593;48.398;10.698;2023-11-21T09:49:48;1.40;;;0.90;;
20865;SDS011;10593;48.398;10.698;2023-11-21T09:52:27;1.47;;;1.23;;
20865;SDS011;10593;48.398;10.698;2023-11-21T09:54:54;1.20;;;1.10;;
20865;SDS011;10593;48.398;10.698;2023-11-21T09:57:24;1.10;;;1.00;;
20865;SDS011;10593;48.398;10.698;2023-11-21T09:59:51;2.70;;;1.30;;
20865;SDS011;10593;48.398;10.698;2023-11-21T10:02:22;0.87;;;0.80;;
20865;SDS011;10593;48.398;10.698;2023-11-21T10:04:53;0.67;;;0.67;;
20865;SDS011;10593;48.398;10.698;2023-11-21T10:07:20;0.67;;;0.60;;
20865;SDS011;10593;48.398;10.698;2023-11-21T10:09:47;1.07;;;0.83;;
20865;SDS011;10593;48.398;10.698;2023-11-21T10:12:15;0.57;;;0.53;;
20865;SDS011;10593;48.398;10.698;2023-11-21T10:14:42;1.00;;;0.90;;
20865;SDS011;10593;48.398;10.698;2023-11-21T10:17:12;0.80;;;0.80;;
20865;SDS011;10593;48.398;10.698;2023-11-21T10:19:41;0.53;;;0.53;;
20865;SDS011;10593;48.398;10.698;2023-11-21T10:22:07;2.93;;;0.80;;
20865;SDS011;10593;48.398;10.698;2023-11-21T10:24:33;1.53;;;0.93;;
20865;SDS011;10593;48.398;10.698;2023-11-21T10:27:00;1.17;;;1.07;;
20865;SDS011;10593;48.398;10.698;2023-11-21T10:29:28;0.80;;;0.80;;
20865;SDS011;10593;48.398;10.698;2023-11-21T10:31:55;1.57;;;1.30;;
20865;SDS011;10593;48.398;10.698;2023-11-21T10:34:23;1.10;;;1.10;;
20865;SDS011;10593;48.398;10.698;2023-11-21T10:36:49;1.13;;;1.07;;
20865;SDS011;10593;48.398;10.698;2023-11-21T10:39:19;1.93;;;1.10;;
20865;SDS011;10593;48.398;10.698;2023-11-21T10:41:46;1.03;;;0.87;;
20865;SDS011;10593;48.398;10.698;2023-11-21T10:44:15;1.47;;;1.17;;
20865;SDS011;10593;48.398;10.698;2023-11-21T10:46:49;1.53;;;1.10;;
20865;SDS011;10593;48.398;10.698;2023-11-21T10:49:22;2.43;;;1.10;;
20865;SDS011;10593;48.398;10.698;2023-11-21T10:51:50;0.70;;;0.70;;
20865;SDS011;10593;48.398;10.698;2023-11-21T10:54:22;0.90;;;0.90;;
20865;SDS011;10593;48.398;10.698;2023-11-21T10:56:51;0.90;;;0.90;;
20865;SDS011;10593;48.398;10.698;2023-11-21T10:59:23;1.00;;;0.90;;
20865;SDS011;10593;48.398;10.698;2023-11-21T11:01:54;1.23;;;0.80;;
20865;SDS011;10593;48.398;10.698;2023-11-21T11:04:25;1.30;;;0.83;;
20865;SDS011;10593;48.398;10.698;2023-11-21T11:07:02;1.07;;;1.00;;
20865;SDS011;10593;48.398;10.698;2023-11-21T11:09:30;1.23;;;1.13;;
20865;SDS011;10593;48.398;10.698;2023-11-21T11:11:59;1.20;;;1.10;;
20865;SDS011;10593;48.398;10.698;2023-11-21T11:14:29;1.00;;;1.00;;
20865;SDS011;10593;48.398;10.698;2023-11-21T11:16:57;1.03;;;0.87;;
20865;SDS011;10593;48.398;10.698;2023-11-21T11:19:25;0.80;;;0.80;;
20865;SDS011;10593;48.398;10.698;2023-11-21T11:33:44;1.20;;;1.10;;
20865;SDS011;10593;48.398;10.698;2023-11-21T11:42:08;1.63;;;0.93;;
20865;SDS011;10593;48.398;10.698;2023-11-21T11:47:29;0.90;;;0.90;;
20865;SDS011;10593;48.398;10.698;2023-11-21T11:50:06;1.50;;;0.70;;
20865;SDS011;10593;48.398;10.698;2023-11-21T11:55:15;3.63;;;1.23;;
20865;SDS011;10593;48.398;10.698;2023-11-21T11:57:47;0.93;;;0.90;;
20865;SDS011;10593;48.398;10.698;2023-11-21T12:00:20;1.30;;;1.20;;
20865;SDS011;10593;48.398;10.698;2023-11-21T12:02:54;1.30;;;1.20;;
20865;SDS011;10593;48.398;10.698;2023-11-21T12:05:25;2.77;;;2.53;;
20865;SDS011;10593;48.398;10.698;2023-11-21T12:07:57;2.90;;;2.47;;
20865;SDS011;10593;48.398;10.698;2023-11-21T12:10:27;2.10;;;2.00;;
20865;SDS011;10593;48.398;10.698;2023-11-21T12:12:59;2.87;;;1.63;;
20865;SDS011;10593;48.398;10.698;2023-11-21T12:15:32;1.87;;;1.30;;
20865;SDS011;10593;48.398;10.698;2023-11-21T12:18:02;1.80;;;1.33;;
20865;SDS011;10593;48.398;10.698;2023-11-21T12:20:28;0.73;;;0.73;;
20865;SDS011;10593;48.398;10.698;2023-11-21T12:22:56;1.17;;;0.83;;
20865;SDS011;10593;48.398;10.698;2023-11-21T12:25:28;1.53;;;0.90;;
20865;SDS011;10593;48.398;10.698;2023-11-21T12:27:57;0.80;;;0.80;;
20865;SDS011;10593;48.398;10.698;2023-11-21T12:30:27;0.90;;;0.83;;
20865;SDS011;10593;48.398;10.698;2023-11-21T12:33:00;0.87;;;0.87;;
20865;SDS011;10593;48.398;10.698;2023-11-21T12:35:31;0.80;;;0.80;;
20865;SDS011;10593;48.398;10.698;2023-11-21T12:37:59;1.53;;;1.00;;
20865;SDS011;10593;48.398;10.698;2023-11-21T12:40:27;0.90;;;0.90;;
20865;SDS011;10593;48.398;10.698;2023-11-21T12:42:56;0.60;;;0.60;;
20865;SDS011;10593;48.398;10.698;2023-11-21T12:45:26;0.77;;;0.70;;
20865;SDS011;10593;48.398;10.698;2023-11-21T12:48:00;1.00;;;0.70;;
20865;SDS011;10593;48.398;10.698;2023-11-21T12:50:32;0.93;;;0.60;;
20865;SDS011;10593;48.398;10.698;2023-11-21T12:53:02;0.70;;;0.70;;
20865;SDS011;10593;48.398;10.698;2023-11-21T12:55:37;1.00;;;0.90;;
20865;SDS011;10593;48.398;10.698;2023-11-21T12:58:04;1.17;;;0.70;;
20865;SDS011;10593;48.398;10.698;2023-11-21T13:00:36;1.00;;;1.00;;
20865;SDS011;10593;48.398;10.698;2023-11-21T13:03:05;1.20;;;1.10;;
20865;SDS011;10593;48.398;10.698;2023-11-21T13:05:36;2.00;;;1.10;;
20865;SDS011;10593;48.398;10.698;2023-11-21T13:08:04;1.27;;;1.07;;
20865;SDS011;10593;48.398;10.698;2023-11-21T13:10:34;2.00;;;1.13;;
20865;SDS011;10593;48.398;10.698;2023-11-21T13:13:05;2.50;;;1.40;;
20865;SDS011;10593;48.398;10.698;2023-11-21T13:15:34;1.27;;;1.17;;
20865;SDS011;10593;48.398;10.698;2023-11-21T13:18:03;1.20;;;1.00;;
20865;SDS011;10593;48.398;10.698;2023-11-21T13:20:29;1.10;;;1.03;;
20865;SDS011;10593;48.398;10.698;2023-11-21T13:22:56;1.30;;;1.20;;
20865;SDS011;10593;48.398;10.698;2023-11-21T13:25:24;1.47;;;1.37;;
20865;SDS011;10593;48.398;10.698;2023-11-21T13:27:53;1.40;;;1.30;;
20865;SDS011;10593;48.398;10.698;2023-11-21T13:30:20;1.33;;;1.23;;
20865;SDS011;10593;48.398;10.698;2023-11-21T13:32:54;1.50;;;1.40;;
20865;SDS011;10593;48.398;10.698;2023-11-21T13:35:22;1.30;;;1.20;;
20865;SDS011;10593;48.398;10.698;2023-11-21T13:38:06;1.20;;;0.90;;
20865;SDS011;10593;48.398;10.698;2023-11-21T13:40:42;1.33;;;1.20;;
20865;SDS011;10593;48.398;10.698;2023-11-21T13:43:21;0.90;;;0.90;;
20865;SDS011;10593;48.398;10.698;2023-11-21T13:45:50;1.20;;;1.03;;
20865;SDS011;10593;48.398;10.698;2023-11-21T13:48:40;1.97;;;1.10;;
20865;SDS011;10593;48.398;10.698;2023-11-21T13:51:08;0.87;;;0.87;;
20865;SDS011;10593;48.398;10.698;2023-11-21T13:53:44;0.80;;;0.80;;
20865;SDS011;10593;48.398;10.698;2023-11-21T13:56:12;0.67;;;0.60;;
20865;SDS011;10593;48.398;10.698;2023-11-21T13:58:43;0.53;;;0.50;;
20865;SDS011;10593;48.398;10.698;2023-11-21T14:01:16;0.70;;;0.70;;
20865;SDS011;10593;48.398;10.698;2023-11-21T14:03:48;0.60;;;0.60;;
20865;SDS011;10593;48.398;10.698;2023-11-21T14:06:16;1.00;;;1.00;;
20865;SDS011;10593;48.398;10.698;2023-11-21T14:08:49;0.63;;;0.60;;
20865;SDS011;10593;48.398;10.698;2023-11-21T14:11:15;1.10;;;1.00;;
20865;SDS011;10593;48.398;10.698;2023-11-21T14:13:43;1.67;;;1.00;;
20865;SDS011;10593;48.398;10.698;2023-11-21T14:16:13;0.63;;;0.63;;
20865;SDS011;10593;48.398;10.698;2023-11-21T14:18:41;0.90;;;0.83;;
20865;SDS011;10593;48.398;10.698;2023-11-21T14:21:19;1.07;;;0.60;;
20865;SDS011;10593;48.398;10.698;2023-11-21T14:23:44;1.03;;;1.00;;
20865;SDS011;10593;48.398;10.698;2023-11-21T14:26:10;1.30;;;1.20;;
20865;SDS011;10593;48.398;10.698;2023-11-21T14:28:39;1.10;;;1.10;;
20865;SDS011;10593;48.398;10.698;2023-11-21T14:31:08;1.43;;;1.33;;
20865;SDS011;10593;48.398;10.698;2023-11-21T14:33:39;1.40;;;1.30;;
20865;SDS011;10593;48.398;10.698;2023-11-21T14:36:05;2.37;;;1.80;;
20865;SDS011;10593;48.398;10.698;2023-11-21T14:38:38;4.07;;;1.70;;
20865;SDS011;10593;48.398;10.698;2023-11-21T14:41:04;2.93;;;2.60;;
20865;SDS011;10593;48.398;10.698;2023-11-21T14:43:33;2.10;;;1.90;;
20865;SDS011;10593;48.398;10.698;2023-11-21T14:46:03;3.13;;;2.60;;
20865;SDS011;10593;48.398;10.698;2023-11-21T14:48:33;2.50;;;2.33;;
20865;SDS011;10593;48.398;10.698;2023-11-21T14:51:08;1.80;;;1.70;;
20865;SDS011;10593;48.398;10.698;2023-11-21T14:53:40;1.70;;;1.40;;
20865;SDS011;10593;48.398;10.698;2023-11-21T14:56:18;1.50;;;1.40;;
20865;SDS011;10593;48.398;10.698;2023-11-21T14:58:57;1.80;;;1.70;;
20865;SDS011;10593;48.398;10.698;2023-11-21T15:01:30;1.97;;;1.80;;